Time;durP1;ratioP1;P1;durP2;ratioP2;P2;SDS_P1;SDS_P2;PMS_P1;PMS_P2;Temp;Humidity;BMP_temperature;BMP_pressure;BME280_temperature;BME280_humidity;BME280_pressure;Samples;Min_cycle;Max_cycle;Signal;HPM_P1;HPM_P2
2021/01/31 00:00:31;;;;;;;7.30;4.13;;;7.90;99.90;;;;;;5085901;28;20031;-59
2021/01/31 00:03:01;;;;;;;5.82;4.22;;;8.10;99.90;;;;;;5085300;28;20099;-59
2021/01/31 00:05:27;;;;;;;6.82;4.43;;;8.00;99.90;;;;;;5106333;28;20110;-59
2021/01/31 00:07:54;;;;;;;5.60;4.13;;;8.10;99.90;;;;;;5105781;28;20106;-59
2021/01/31 00:10:23;;;;;;;6.25;4.10;;;8.10;99.90;;;;;;5089584;28;20043;-59
2021/01/31 00:12:49;;;;;;;6.90;4.15;;;8.20;99.90;;;;;;5084817;28;20078;-59
2021/01/31 00:15:17;;;;;;;6.63;4.55;;;8.10;99.90;;;;;;5086018;28;20028;-59
2021/01/31 00:17:43;;;;;;;7.07;4.65;;;7.90;99.90;;;;;;5086507;28;20046;-59
2021/01/31 00:20:11;;;;;;;8.23;4.75;;;8.00;99.90;;;;;;5085531;28;20659;-60
2021/01/31 00:22:37;;;;;;;7.82;5.22;;;7.90;99.90;;;;;;5085727;28;20028;-59
2021/01/31 00:25:04;;;;;;;6.70;4.80;;;7.70;99.90;;;;;;5088887;28;20683;-59
2021/01/31 00:27:30;;;;;;;8.35;5.55;;;7.80;99.90;;;;;;5106706;28;20494;-59
2021/01/31 00:29:55;;;;;;;9.05;5.63;;;7.40;99.90;;;;;;5109615;28;20035;-58
2021/01/31 00:32:30;;;;;;;7.72;5.00;;;7.20;99.90;;;;;;5110252;28;20479;-58
2021/01/31 00:34:56;;;;;;;;;;;7.40;99.90;;;;;;5091498;28;20386;-59
2021/01/31 00:37:23;;;;;;;8.25;5.65;;;7.40;99.90;;;;;;5089446;28;19915;-59
2021/01/31 00:39:50;;;;;;;9.18;5.75;;;7.30;99.90;;;;;;5089716;28;20023;-58
2021/01/31 00:42:18;;;;;;;7.88;4.85;;;7.20;99.90;;;;;;5104060;28;20497;-59
2021/01/31 00:44:50;;;;;;;7.60;4.70;;;7.50;99.90;;;;;;5110641;28;20019;-58
2021/01/31 00:47:17;;;;;;;5.57;3.67;;;7.70;99.90;;;;;;5110302;28;20032;-58
2021/01/31 00:49:44;;;;;;;6.40;3.95;;;7.70;99.90;;;;;;5101323;28;20409;-59
2021/01/31 00:52:10;;;;;;;5.32;3.40;;;8.00;99.90;;;;;;5087048;28;20360;-58
2021/01/31 00:54:36;;;;;;;5.90;3.50;;;8.00;99.90;;;;;;5086852;28;20028;-59
2021/01/31 00:57:02;;;;;;;5.10;3.50;;;8.10;99.90;;;;;;5107528;28;20054;-59
2021/01/31 00:59:28;;;;;;;5.88;3.70;;;8.10;99.90;;;;;;5109213;28;20104;-59
2021/01/31 01:01:54;;;;;;;5.90;3.90;;;8.10;99.90;;;;;;5107550;28;20580;-59
2021/01/31 01:04:20;;;;;;;6.70;4.25;;;7.80;99.90;;;;;;5108585;28;20102;-59
2021/01/31 01:06:46;;;;;;;6.63;4.10;;;7.70;99.90;;;;;;5108121;28;20175;-58
2021/01/31 01:09:13;;;;;;;5.60;3.55;;;7.90;99.90;;;;;;5107819;28;20642;-59
2021/01/31 01:11:40;;;;;;;7.97;4.53;;;8.10;99.90;;;;;;5107011;28;20596;-59
2021/01/31 01:14:06;;;;;;;6.53;3.85;;;8.10;99.90;;;;;;5108328;28;20028;-59
2021/01/31 01:16:33;;;;;;;7.45;4.60;;;8.10;99.90;;;;;;5108136;28;20035;-59
2021/01/31 01:18:58;;;;;;;5.30;4.15;;;8.10;99.90;;;;;;5107739;28;20112;-58
2021/01/31 01:21:25;;;;;;;6.25;3.95;;;8.20;99.90;;;;;;5108181;28;20053;-59
2021/01/31 01:23:51;;;;;;;6.10;4.00;;;8.20;99.90;;;;;;5107914;28;20023;-58
2021/01/31 01:26:16;;;;;;;6.65;4.22;;;8.30;99.90;;;;;;5107415;28;20106;-59
2021/01/31 01:28:43;;;;;;;5.85;3.85;;;8.30;99.90;;;;;;5107872;28;20027;-59
2021/01/31 01:31:08;;;;;;;6.80;4.65;;;8.10;99.90;;;;;;5106768;28;20055;-59
2021/01/31 01:33:35;;;;;;;6.93;4.28;;;8.10;99.90;;;;;;5106536;28;20015;-59
2021/01/31 01:36:01;;;;;;;7.35;4.53;;;8.20;99.90;;;;;;5106243;28;20068;-59
2021/01/31 01:38:27;;;;;;;6.75;4.10;;;8.10;99.90;;;;;;5107136;28;20047;-59
2021/01/31 01:40:56;;;;;;;5.50;3.78;;;8.10;99.90;;;;;;5107641;28;20031;-59
2021/01/31 01:43:22;;;;;;;7.20;3.72;;;8.00;99.90;;;;;;5107386;28;20035;-59
2021/01/31 01:46:25;;;;;;;6.18;4.68;;;8.00;99.90;;;;;;5107636;28;20114;-59
2021/01/31 01:49:04;;;;;;;6.25;3.63;;;8.00;99.90;;;;;;5085028;28;20127;-59
2021/01/31 01:51:42;;;;;;;5.47;3.80;;;7.90;99.90;;;;;;5107336;28;20040;-59
2021/01/31 01:54:16;;;;;;;5.95;3.85;;;7.80;99.90;;;;;;5107062;28;20031;-59
2021/01/31 01:56:46;;;;;;;7.97;4.03;;;7.70;99.90;;;;;;5107299;28;20416;-59
2021/01/31 01:59:12;;;;;;;5.55;3.83;;;7.70;99.90;;;;;;5107006;28;20110;-59
2021/01/31 02:02:03;;;;;;;5.65;3.55;;;7.90;99.90;;;;;;5106608;28;20154;-58
2021/01/31 02:04:30;;;;;;;5.68;3.85;;;8.00;99.90;;;;;;5101387;28;20367;-59
2021/01/31 02:06:56;;;;;;;7.57;4.53;;;7.90;99.90;;;;;;5106953;28;20059;-59
2021/01/31 02:09:22;;;;;;;8.80;5.13;;;7.60;99.90;;;;;;5105503;28;20055;-59
2021/01/31 02:11:54;;;;;;;6.65;4.30;;;7.50;99.90;;;;;;5105684;28;20032;-59
2021/01/31 02:14:20;;;;;;;9.52;5.30;;;7.30;99.90;;;;;;5106910;28;20523;-59
2021/01/31 02:16:57;;;;;;;6.60;4.28;;;7.40;99.90;;;;;;5106930;28;20031;-59
2021/01/31 02:19:43;;;;;;;7.40;4.45;;;7.60;99.90;;;;;;5107134;28;20507;-59
2021/01/31 02:22:33;;;;;;;5.55;3.67;;;7.80;99.90;;;;;;5106717;28;20051;-59
2021/01/31 02:25:29;;;;;;;5.03;3.42;;;7.80;99.90;;;;;;5106496;28;20339;-59
2021/01/31 02:28:07;;;;;;;5.80;3.70;;;7.90;99.90;;;;;;5106551;28;20550;-58
2021/01/31 02:30:45;;;;;;;6.13;3.65;;;7.90;99.90;;;;;;5106836;28;20102;-58
2021/01/31 02:33:32;;;;;;;6.03;3.70;;;8.00;99.90;;;;;;5106512;28;20023;-59
2021/01/31 02:36:05;;;;;;;5.53;3.78;;;7.90;99.90;;;;;;5106372;28;20028;-59
2021/01/31 02:38:49;;;;;;;6.38;3.72;;;7.90;99.90;;;;;;5106066;28;20088;-59
2021/01/31 02:41:34;;;;;;;4.85;3.40;;;7.80;99.90;;;;;;5106706;28;20047;-59
2021/01/31 02:44:05;;;;;;;5.78;3.58;;;7.70;99.90;;;;;;5106431;28;20027;-59
2021/01/31 02:46:43;;;;;;;5.25;3.58;;;7.80;99.90;;;;;;5106452;28;20032;-59
2021/01/31 02:49:14;;;;;;;6.00;3.60;;;7.90;99.90;;;;;;5105804;28;20030;-59
2021/01/31 02:51:50;;;;;;;4.70;3.08;;;7.80;99.90;;;;;;5105407;28;20829;-58
2021/01/31 02:54:25;;;;;;;4.85;2.95;;;7.80;99.90;;;;;;5104796;28;20111;-59
2021/01/31 02:56:58;;;;;;;5.10;3.40;;;7.90;99.90;;;;;;5106935;28;20128;-59
2021/01/31 02:59:38;;;;;;;4.28;2.97;;;7.70;99.90;;;;;;5104820;28;20023;-59
2021/01/31 03:02:11;;;;;;;5.18;3.33;;;7.90;99.90;;;;;;5105876;28;20257;-59
2021/01/31 03:04:42;;;;;;;4.63;2.83;;;7.90;99.90;;;;;;5105885;28;20477;-59
2021/01/31 03:07:19;;;;;;;5.03;2.95;;;7.80;99.90;;;;;;5105539;28;20102;-59
2021/01/31 03:09:54;;;;;;;5.32;3.45;;;7.80;99.90;;;;;;5105311;28;20027;-59
2021/01/31 03:12:27;;;;;;;4.03;2.85;;;7.80;99.90;;;;;;5105388;28;20076;-59
2021/01/31 03:14:58;;;;;;;6.15;3.50;;;7.90;99.90;;;;;;5105577;28;20566;-59
2021/01/31 03:17:33;;;;;;;6.28;3.60;;;7.90;99.90;;;;;;5105402;28;20493;-59
2021/01/31 03:20:19;;;;;;;7.20;4.45;;;7.70;99.90;;;;;;5105806;28;20023;-58
2021/01/31 03:23:16;;;;;;;7.03;4.25;;;7.30;99.90;;;;;;5106315;28;20015;-59
2021/01/31 03:25:54;;;;;;;8.52;4.55;;;7.30;99.90;;;;;;5105320;28;20031;-59
2021/01/31 03:28:20;;;;;;;6.45;3.63;;;7.40;99.90;;;;;;5104942;28;20117;-59
2021/01/31 03:30:47;;;;;;;5.70;4.05;;;7.70;99.90;;;;;;5105583;28;20654;-59
2021/01/31 03:33:38;;;;;;;6.63;3.88;;;7.70;99.90;;;;;;5105144;28;20678;-59
2021/01/31 03:36:04;;;;;;;7.45;4.50;;;7.50;99.90;;;;;;5105173;28;20028;-59
2021/01/31 03:38:39;;;;;;;8.73;4.97;;;7.40;99.90;;;;;;5105482;28;20028;-59
2021/01/31 03:41:09;;;;;;;7.40;4.70;;;7.10;99.90;;;;;;5105103;28;20016;-59
2021/01/31 03:43:35;;;;;;;6.68;4.15;;;7.20;99.90;;;;;;5105303;28;20059;-58
2021/01/31 03:46:25;;;;;;;9.02;4.15;;;7.30;99.90;;;;;;5104664;28;20066;-59
2021/01/31 03:49:09;;;;;;;6.78;3.80;;;7.60;99.90;;;;;;5105016;28;20032;-59
2021/01/31 03:51:35;;;;;;;6.68;3.78;;;7.80;99.90;;;;;;5105386;28;20443;-59
2021/01/31 03:54:04;;;;;;;5.57;3.67;;;7.90;99.90;;;;;;5105003;28;20339;-59
2021/01/31 03:56:48;;;;;;;5.47;3.38;;;7.80;99.90;;;;;;5105240;28;20034;-58
2021/01/31 03:59:20;;;;;;;4.80;3.20;;;7.80;99.90;;;;;;5104871;28;20016;-59
2021/01/31 04:01:48;;;;;;;3.50;2.70;;;7.80;99.90;;;;;;5105740;28;20031;-59
2021/01/31 04:04:21;;;;;;;3.70;2.70;;;7.90;99.90;;;;;;5104835;28;20020;-59
2021/01/31 04:06:52;;;;;;;5.03;3.35;;;7.90;99.90;;;;;;5105716;28;20118;-59
2021/01/31 04:09:19;;;;;;;5.25;3.60;;;7.90;99.90;;;;;;5105146;28;20106;-59
2021/01/31 04:11:46;;;;;;;7.00;4.05;;;8.00;99.90;;;;;;5104793;28;20039;-59
2021/01/31 04:14:24;;;;;;;7.32;3.97;;;7.90;99.90;;;;;;5104829;28;20081;-59
2021/01/31 04:16:50;;;;;;;6.35;3.75;;;7.90;99.90;;;;;;5105449;28;20032;-59
2021/01/31 04:19:17;;;;;;;5.20;3.55;;;7.80;99.90;;;;;;5105151;28;20096;-59
2021/01/31 04:21:44;;;;;;;4.90;3.38;;;7.70;99.90;;;;;;5105073;28;20044;-59
2021/01/31 04:24:10;;;;;;;5.57;3.25;;;7.70;99.90;;;;;;5104564;28;20646;-58
2021/01/31 04:26:36;;;;;;;4.78;3.17;;;7.80;99.90;;;;;;5104856;28;20038;-58
2021/01/31 04:29:02;;;;;;;5.03;2.95;;;7.80;99.90;;;;;;5103537;28;20501;-59
2021/01/31 04:31:29;;;;;;;6.38;3.88;;;7.70;99.90;;;;;;5104992;28;20035;-59
2021/01/31 04:33:54;;;;;;;5.00;3.40;;;7.40;99.90;;;;;;5104702;28;20042;-59
2021/01/31 04:36:21;;;;;;;6.70;3.75;;;7.30;99.90;;;;;;5103986;28;20039;-59
2021/01/31 04:38:46;;;;;;;7.90;3.72;;;7.00;99.90;;;;;;5105566;28;20568;-59
2021/01/31 04:41:12;;;;;;;5.40;3.50;;;7.30;99.90;;;;;;5103310;28;20652;-59
2021/01/31 04:43:38;;;;;;;4.30;3.00;;;7.50;99.90;;;;;;5103009;28;20024;-58
2021/01/31 04:46:08;;;;;;;6.30;3.58;;;7.70;99.90;;;;;;5104668;28;20015;-58
2021/01/31 04:49:05;;;;;;;4.97;3.38;;;7.80;99.90;;;;;;5104518;28;20016;-59
2021/01/31 04:51:45;;;;;;;4.82;3.25;;;7.70;99.90;;;;;;5103389;28;20114;-59
2021/01/31 04:54:33;;;;;;;4.53;3.08;;;7.80;99.90;;;;;;5104581;28;20247;-59
2021/01/31 04:57:07;;;;;;;5.20;3.00;;;7.80;99.90;;;;;;5102970;28;20443;-58
2021/01/31 04:59:37;;;;;;;9.60;3.42;;;7.80;99.90;;;;;;5104736;28;20012;-59
2021/01/31 05:02:14;;;;;;;5.45;3.40;;;7.80;99.90;;;;;;5104484;28;20160;-59
2021/01/31 05:04:53;;;;;;;5.80;3.08;;;7.80;99.90;;;;;;5104484;28;20401;-59
2021/01/31 05:07:41;;;;;;;5.30;3.17;;;7.60;99.90;;;;;;5103299;28;20040;-59
2021/01/31 05:10:07;;;;;;;5.00;3.15;;;7.60;99.90;;;;;;5103420;28;20051;-59
2021/01/31 05:13:04;;;;;;;5.95;3.05;;;7.70;99.90;;;;;;5104072;28;20493;-59
2021/01/31 05:15:38;;;;;;;4.95;3.35;;;7.90;99.90;;;;;;5108445;28;20164;-59
2021/01/31 05:18:05;;;;;;;5.05;2.92;;;8.00;99.90;;;;;;5107958;28;20023;-59
2021/01/31 05:20:35;;;;;;;4.30;2.80;;;8.00;99.90;;;;;;5108537;28;20019;-58
2021/01/31 05:23:02;;;;;;;4.15;2.97;;;7.90;99.90;;;;;;5108547;28;20111;-58
2021/01/31 05:25:35;;;;;;;4.38;3.40;;;7.90;99.90;;;;;;5108123;28;20015;-58
2021/01/31 05:28:02;;;;;;;5.15;3.03;;;7.90;99.90;;;;;;5107162;28;20197;-58
2021/01/31 05:30:29;;;;;;;5.43;3.38;;;7.80;99.90;;;;;;5108491;28;20019;-59
2021/01/31 05:33:07;;;;;;;6.75;3.45;;;7.90;99.90;;;;;;5107675;28;20019;-59
2021/01/31 05:36:11;;;;;;;5.43;3.53;;;7.80;99.90;;;;;;5108444;28;20034;-58
2021/01/31 05:38:40;;;;;;;5.68;3.70;;;7.70;99.90;;;;;;5107632;28;20657;-58
2021/01/31 05:41:31;;;;;;;4.55;3.15;;;7.60;99.90;;;;;;5107478;28;20114;-59
2021/01/31 05:44:02;;;;;;;8.85;4.00;;;7.60;99.90;;;;;;5102339;28;20239;-58
2021/01/31 05:46:49;;;;;;;4.47;3.35;;;7.70;99.90;;;;;;5108257;28;20028;-59
2021/01/31 05:49:41;;;;;;;5.45;3.47;;;7.60;99.90;;;;;;5107389;28;20485;-59
2021/01/31 05:52:21;;;;;;;5.90;3.97;;;7.70;99.90;;;;;;5106988;28;20035;-59
2021/01/31 05:54:49;;;;;;;6.32;4.18;;;7.70;99.90;;;;;;5106611;28;20039;-59
2021/01/31 05:57:21;;;;;;;6.75;4.28;;;7.80;99.90;;;;;;5106714;28;20123;-59
2021/01/31 05:59:46;;;;;;;6.15;3.85;;;7.80;99.90;;;;;;5107434;28;20028;-59
2021/01/31 06:02:27;;;;;;;5.68;3.30;;;7.90;99.90;;;;;;5107451;28;20097;-58
2021/01/31 06:05:18;;;;;;;5.35;3.55;;;7.90;99.90;;;;;;5107026;28;20050;-59
2021/01/31 06:07:45;;;;;;;5.22;3.17;;;7.70;99.90;;;;;;5105642;28;20276;-59
2021/01/31 06:10:14;;;;;;;5.47;3.25;;;7.60;99.90;;;;;;5106278;28;20037;-59
2021/01/31 06:12:42;;;;;;;5.85;3.65;;;7.60;99.90;;;;;;5106924;28;20031;-59
2021/01/31 06:15:17;;;;;;;6.03;3.42;;;7.70;99.90;;;;;;5106571;28;20497;-59
2021/01/31 06:17:52;;;;;;;5.70;3.40;;;7.70;99.90;;;;;;5107287;28;20594;-59
2021/01/31 06:20:29;;;;;;;5.15;3.40;;;7.70;99.90;;;;;;5106997;28;20072;-58
2021/01/31 06:22:56;;;;;;;6.15;3.55;;;7.80;99.90;;;;;;5107012;28;20054;-58
2021/01/31 06:25:27;;;;;;;5.80;3.60;;;7.90;99.90;;;;;;5105520;28;20559;-58
2021/01/31 06:28:10;;;;;;;5.22;3.53;;;7.90;99.90;;;;;;5106472;28;20107;-59
2021/01/31 06:31:20;;;;;;;5.85;3.70;;;7.90;99.90;;;;;;5106761;28;20016;-58
2021/01/31 06:33:46;;;;;;;6.25;3.70;;;8.00;99.90;;;;;;5101031;28;20468;-59
2021/01/31 06:36:43;;;;;;;7.18;3.72;;;7.90;99.90;;;;;;5106206;28;20063;-58
2021/01/31 06:39:26;;;;;;;5.97;4.03;;;7.90;99.90;;;;;;5106039;28;20088;-59
2021/01/31 06:42:29;;;;;;;6.65;4.30;;;7.90;99.90;;;;;;5106677;28;20027;-59
2021/01/31 06:45:22;;;;;;;8.63;4.72;;;7.90;99.90;;;;;;5106427;28;20034;-59
2021/01/31 06:47:51;;;;;;;10.80;4.43;;;7.90;99.90;;;;;;5106753;28;20028;-59
2021/01/31 06:50:32;;;;;;;6.13;4.07;;;7.90;99.90;;;;;;5102695;27;20414;-59
2021/01/31 06:53:27;;;;;;;7.53;3.67;;;7.90;99.90;;;;;;5086935;28;20052;-58
2021/01/31 06:56:10;;;;;;;6.75;4.25;;;7.80;99.90;;;;;;5100297;28;20118;-58
2021/01/31 06:59:01;;;;;;;7.60;4.22;;;7.90;99.90;;;;;;5104807;28;20389;-59
2021/01/31 07:01:47;;;;;;;7.47;4.45;;;7.90;99.90;;;;;;5105822;28;20152;-59
2021/01/31 07:04:28;;;;;;;6.40;3.92;;;7.80;99.90;;;;;;5105778;28;20020;-59
2021/01/31 07:07:04;;;;;;;6.85;4.43;;;7.80;99.90;;;;;;5104749;28;20039;-59
2021/01/31 07:09:58;;;;;;;7.43;4.30;;;7.60;99.90;;;;;;5106640;28;20024;-59
2021/01/31 07:12:54;;;;;;;7.70;4.32;;;7.50;99.90;;;;;;5105703;28;20054;-59
2021/01/31 07:15:20;;;;;;;7.30;4.22;;;7.50;99.90;;;;;;5105650;28;20024;-59
2021/01/31 07:18:00;;;;;;;8.48;4.63;;;7.70;99.90;;;;;;5105808;28;20037;-59
2021/01/31 07:20:30;;;;;;;7.55;4.40;;;7.70;99.90;;;;;;5105713;28;20031;-59
2021/01/31 07:23:11;;;;;;;8.65;3.95;;;7.60;99.90;;;;;;5105544;28;20020;-58
2021/01/31 07:25:41;;;;;;;6.53;3.45;;;7.70;99.90;;;;;;5104881;28;20210;-59
2021/01/31 07:28:22;;;;;;;5.68;3.38;;;7.70;99.90;;;;;;5099645;28;20475;-59
2021/01/31 07:31:03;;;;;;;6.38;4.22;;;7.70;99.90;;;;;;5096339;28;20106;-59
2021/01/31 07:33:28;;;;;;;6.18;3.13;;;7.50;99.90;;;;;;5100080;28;20032;-59
2021/01/31 07:35:54;;;;;;;4.80;3.17;;;7.50;99.90;;;;;;5097794;28;20028;-58
2021/01/31 07:38:53;;;;;;;4.68;3.13;;;7.50;99.90;;;;;;5086315;28;20070;-59
2021/01/31 07:41:19;;;;;;;5.07;3.00;;;7.70;99.90;;;;;;5086488;28;20024;-59
2021/01/31 07:43:47;;;;;;;4.07;2.67;;;7.70;99.90;;;;;;5086538;28;20031;-59
2021/01/31 07:46:18;;;;;;;4.53;2.92;;;7.70;99.90;;;;;;5086559;28;20123;-59
2021/01/31 07:48:44;;;;;;;4.85;2.85;;;7.80;99.90;;;;;;5086697;28;20055;-58
2021/01/31 07:51:11;;;;;;;6.35;3.55;;;7.90;99.90;;;;;;5086448;28;20494;-58
2021/01/31 07:53:43;;;;;;;7.63;3.42;;;7.70;99.90;;;;;;5085996;28;20521;-59
2021/01/31 07:56:44;;;;;;;7.32;3.47;;;7.70;99.90;;;;;;5086007;28;20052;-58
2021/01/31 07:59:10;;;;;;;7.57;3.83;;;7.80;99.90;;;;;;5053270;28;20033;-58
2021/01/31 08:01:41;;;;;;;5.68;3.72;;;7.80;99.90;;;;;;5081693;28;20084;-58
2021/01/31 08:04:16;;;;;;;3.95;2.88;;;7.60;99.90;;;;;;5086118;28;20576;-58
2021/01/31 08:06:51;;;;;;;5.15;2.97;;;7.70;99.90;;;;;;5085623;28;20032;-58
2021/01/31 08:09:26;;;;;;;6.07;3.33;;;7.70;99.90;;;;;;5085774;28;20028;-58
2021/01/31 08:12:07;;;;;;;5.22;3.00;;;7.80;99.90;;;;;;5087737;28;20459;-59
2021/01/31 08:15:10;;;;;;;4.25;2.65;;;7.90;99.90;;;;;;5089814;28;20042;-60
2021/01/31 08:17:40;;;;;;;4.72;2.45;;;8.00;99.90;;;;;;5098863;28;20063;-60
2021/01/31 08:20:24;;;;;;;6.47;3.13;;;8.00;99.90;;;;;;5091163;28;20538;-59
2021/01/31 08:22:50;;;;;;;4.43;2.80;;;8.10;99.90;;;;;;5104554;28;20112;-59
2021/01/31 08:25:16;;;;;;;3.65;2.60;;;8.10;99.90;;;;;;5097618;28;20069;-59
2021/01/31 08:27:41;;;;;;;4.47;2.72;;;8.10;99.90;;;;;;5088341;28;20031;-60
2021/01/31 08:30:29;;;;;;;4.50;2.63;;;8.10;99.90;;;;;;5096644;28;20027;-60
2021/01/31 08:32:58;;;;;;;3.60;2.88;;;8.10;99.90;;;;;;5095670;28;20079;-59
2021/01/31 08:35:31;;;;;;;3.60;2.33;;;8.20;99.90;;;;;;5107769;28;20425;-59
2021/01/31 08:38:16;;;;;;;5.50;2.28;;;8.30;99.90;;;;;;5093169;28;20468;-60
2021/01/31 08:41:01;;;;;;;3.78;2.55;;;8.30;99.90;;;;;;5106309;28;20028;-59
2021/01/31 08:43:49;;;;;;;4.78;2.63;;;8.30;99.90;;;;;;5104563;28;20506;-59
2021/01/31 08:46:21;;;;;;;5.40;2.55;;;8.30;99.90;;;;;;5105285;28;20661;-59
2021/01/31 08:49:00;;;;;;;3.42;2.25;;;8.30;99.90;;;;;;5087223;28;20032;-60
2021/01/31 08:51:29;;;;;;;4.72;2.60;;;8.40;99.90;;;;;;5089605;28;20028;-59
2021/01/31 08:54:11;;;;;;;3.55;2.42;;;8.30;99.90;;;;;;5089660;28;20066;-59
2021/01/31 08:56:40;;;;;;;4.75;2.80;;;8.40;99.90;;;;;;5101612;28;20451;-60
2021/01/31 08:59:20;;;;;;;7.97;4.82;;;8.40;99.90;;;;;;5088627;28;20044;-59
2021/01/31 09:01:51;;;;;;;7.82;4.85;;;8.60;99.90;;;;;;5091048;28;20074;-60
2021/01/31 09:04:20;;;;;;;7.78;4.15;;;8.60;99.90;;;;;;5109506;28;20481;-60
2021/01/31 09:06:50;;;;;;;9.70;4.82;;;8.60;99.90;;;;;;5105687;28;20097;-60
2021/01/31 09:09:20;;;;;;;9.32;4.90;;;8.70;99.90;;;;;;5088469;28;20028;-60
2021/01/31 09:11:51;;;;;;;6.32;3.78;;;8.80;99.90;;;;;;5095833;28;20035;-60
2021/01/31 09:14:24;;;;;;;6.93;4.35;;;8.80;99.90;;;;;;5102997;28;20039;-60
2021/01/31 09:16:49;;;;;;;6.47;3.67;;;8.90;99.90;;;;;;5101197;28;20084;-60
2021/01/31 09:19:22;;;;;;;5.68;3.22;;;9.10;99.90;;;;;;5089259;28;20024;-59
2021/01/31 09:21:53;;;;;;;5.97;3.47;;;9.00;99.90;;;;;;5102628;28;20012;-59
2021/01/31 09:24:21;;;;;;;6.05;3.75;;;9.10;99.90;;;;;;5094269;28;20028;-59
2021/01/31 09:26:53;;;;;;;5.57;3.38;;;9.20;99.90;;;;;;5102356;28;20080;-59
2021/01/31 09:29:22;;;;;;;3.97;2.47;;;9.10;99.90;;;;;;5109445;28;20410;-59
2021/01/31 09:31:54;;;;;;;5.10;2.92;;;9.20;99.90;;;;;;5108963;28;20019;-59
2021/01/31 09:34:23;;;;;;;5.18;2.80;;;9.20;99.90;;;;;;5110413;28;20520;-61
2021/01/31 09:37:05;;;;;;;3.80;2.83;;;9.20;99.90;;;;;;5100608;28;20075;-57
2021/01/31 09:39:33;;;;;;;5.78;3.53;;;9.20;99.90;;;;;;5093048;28;20057;-59
2021/01/31 09:42:02;;;;;;;3.97;2.72;;;9.30;99.90;;;;;;5102867;28;20031;-59
2021/01/31 09:44:29;;;;;;;3.90;2.58;;;9.30;99.90;;;;;;5110163;28;20028;-59
2021/01/31 09:46:55;;;;;;;4.93;3.35;;;9.40;99.90;;;;;;5109839;28;20111;-59
2021/01/31 09:49:25;;;;;;;6.32;3.75;;;9.40;99.90;;;;;;5108539;28;20036;-59
2021/01/31 09:51:51;;;;;;;5.38;3.35;;;9.50;99.90;;;;;;5109762;28;20496;-59
2021/01/31 09:54:28;;;;;;;6.38;3.53;;;9.50;99.90;;;;;;5107987;28;20023;-59
2021/01/31 09:56:56;;;;;;;6.45;3.80;;;9.50;99.90;;;;;;5108041;27;20854;-59
2021/01/31 09:59:25;;;;;;;3.60;2.60;;;9.60;99.90;;;;;;5109349;28;20147;-59
2021/01/31 10:02:01;;;;;;;3.75;2.55;;;9.80;99.90;;;;;;5097045;27;20108;-59
2021/01/31 10:04:27;;;;;;;2.78;2.17;;;9.70;99.90;;;;;;5097599;28;20035;-59
2021/01/31 10:07:05;;;;;;;4.47;2.58;;;9.80;99.90;;;;;;5087528;28;20116;-59
2021/01/31 10:09:35;;;;;;;3.35;2.10;;;9.90;99.90;;;;;;5088684;28;20092;-59
2021/01/31 10:12:26;;;;;;;2.40;1.90;;;9.90;99.90;;;;;;5087717;28;20501;-59
2021/01/31 10:15:07;;;;;;;2.83;1.92;;;9.90;99.90;;;;;;5099341;28;20035;-59
2021/01/31 10:17:37;;;;;;;3.35;2.22;;;10.10;99.90;;;;;;5102717;28;20552;-59
2021/01/31 10:20:28;;;;;;;3.20;2.13;;;10.10;99.90;;;;;;5092320;28;20085;-59
2021/01/31 10:23:19;;;;;;;2.60;1.83;;;10.10;99.90;;;;;;5091236;28;20043;-59
2021/01/31 10:25:59;;;;;;;3.55;1.80;;;10.10;99.90;;;;;;5106765;28;20464;-59
2021/01/31 10:29:01;;;;;;;3.75;2.13;;;10.20;99.90;;;;;;5108569;28;20133;-59
2021/01/31 10:31:27;;;;;;;5.00;2.40;;;10.30;99.90;;;;;;5108646;28;20016;-59
2021/01/31 10:33:54;;;;;;;4.50;2.78;;;10.50;99.90;;;;;;5108924;28;20493;-59
2021/01/31 10:36:33;;;;;;;3.88;2.53;;;10.50;99.90;;;;;;5108895;28;20381;-59
2021/01/31 10:39:25;;;;;;;4.82;2.35;;;10.60;99.90;;;;;;5090216;28;20114;-57
2021/01/31 10:41:52;;;;;;;3.20;2.30;;;10.70;99.90;;;;;;5089464;28;20028;-57
2021/01/31 10:44:27;;;;;;;2.55;1.98;;;10.70;99.90;;;;;;5088036;28;20024;-53
2021/01/31 10:46:53;;;;;;;2.30;1.83;;;10.70;99.90;;;;;;5092765;28;20023;-48
2021/01/31 10:49:19;;;;;;;2.67;2.00;;;10.80;99.90;;;;;;5088083;28;20032;-51
2021/01/31 10:51:45;;;;;;;3.00;1.92;;;10.80;99.90;;;;;;5088374;28;20028;-51
2021/01/31 10:54:12;;;;;;;2.00;1.45;;;10.80;99.90;;;;;;5087585;28;20130;-51
2021/01/31 10:56:38;;;;;;;2.42;1.45;;;10.90;99.90;;;;;;5088028;28;20024;-50
2021/01/31 10:59:04;;;;;;;2.95;1.52;;;11.00;99.90;;;;;;5088319;28;20035;-51
2021/01/31 11:01:30;;;;;;;3.70;1.70;;;11.00;99.90;;;;;;5091707;28;20023;-54
2021/01/31 11:03:57;;;;;;;1.90;1.58;;;11.10;99.90;;;;;;5089666;28;20024;-50
2021/01/31 11:06:24;;;;;;;2.20;1.60;;;11.10;99.90;;;;;;5087888;28;20020;-51
2021/01/31 11:08:51;;;;;;;1.60;1.25;;;11.00;99.90;;;;;;5087913;28;20115;-51
2021/01/31 11:11:19;;;;;;;2.10;1.63;;;11.00;99.90;;;;;;5086891;28;20032;-50
2021/01/31 11:13:46;;;;;;;2.70;1.92;;;11.10;99.90;;;;;;5090444;28;20046;-52
2021/01/31 11:16:11;;;;;;;2.15;1.27;;;11.20;99.90;;;;;;5100914;28;20024;-51
2021/01/31 11:18:37;;;;;;;2.58;1.75;;;11.30;99.90;;;;;;5104628;28;20046;-51
2021/01/31 11:21:03;;;;;;;1.90;1.30;;;11.40;99.90;;;;;;5103931;28;20517;-51
2021/01/31 11:23:29;;;;;;;1.67;1.33;;;11.50;99.90;;;;;;5089153;28;20036;-49
2021/01/31 11:25:55;;;;;;;1.20;1.00;;;11.40;99.90;;;;;;5097181;28;20050;-52
2021/01/31 11:28:20;;;;;;;3.17;1.73;;;11.60;99.90;;;;;;5089504;28;20043;-49
2021/01/31 11:30:47;;;;;;;2.08;1.23;;;11.80;99.90;;;;;;5102807;28;20023;-52
2021/01/31 11:33:13;;;;;;;2.50;1.50;;;11.70;99.90;;;;;;5100009;28;20140;-52
2021/01/31 11:35:39;;;;;;;2.30;1.88;;;11.90;99.90;;;;;;5086960;28;20051;-52
2021/01/31 11:38:05;;;;;;;2.50;1.73;;;11.90;99.90;;;;;;5084511;28;20028;-51
2021/01/31 11:40:32;;;;;;;2.75;1.85;;;11.90;99.90;;;;;;5089283;28;20024;-51
2021/01/31 11:42:58;;;;;;;3.58;2.00;;;12.00;99.90;;;;;;5101217;28;20481;-52
2021/01/31 11:45:26;;;;;;;2.63;2.03;;;12.00;99.90;;;;;;5091724;28;20104;-52
2021/01/31 11:47:52;;;;;;;2.60;1.88;;;12.20;99.90;;;;;;5086981;28;20078;-52
2021/01/31 11:50:19;;;;;;;1.50;1.40;;;12.40;99.90;;;;;;5090677;28;20031;-54
2021/01/31 11:52:45;;;;;;;1.98;1.48;;;12.50;99.90;;;;;;5085652;28;20032;-52
2021/01/31 11:55:12;;;;;;;2.22;1.55;;;12.50;99.90;;;;;;5091116;28;20026;-51
2021/01/31 11:57:38;;;;;;;3.63;1.50;;;12.60;99.90;;;;;;5093173;28;20056;-52
2021/01/31 12:00:06;;;;;;;2.15;1.50;;;12.70;99.90;;;;;;5091944;28;20024;-50
2021/01/31 12:02:33;;;;;;;1.50;1.10;;;12.90;99.90;;;;;;5105003;28;20405;-50
2021/01/31 12:04:59;;;;;;;1.92;1.52;;;12.90;99.90;;;;;;5105191;28;20024;-51
2021/01/31 12:07:25;;;;;;;2.55;1.50;;;12.70;99.90;;;;;;5092836;28;20115;-52
2021/01/31 12:09:50;;;;;;;1.67;1.25;;;12.80;99.90;;;;;;5099799;28;20238;-50
2021/01/31 12:12:16;;;;;;;3.53;1.40;;;12.90;99.90;;;;;;5088341;28;20052;-49
2021/01/31 12:14:43;;;;;;;1.27;1.10;;;12.90;99.90;;;;;;5085667;28;20032;-49
2021/01/31 12:17:09;;;;;;;2.17;1.63;;;12.80;99.90;;;;;;5090584;28;20502;-50
2021/01/31 12:19:35;;;;;;;1.50;1.23;;;12.70;99.90;;;;;;5089087;28;20035;-53
2021/01/31 12:22:01;;;;;;;1.65;1.45;;;12.80;99.90;;;;;;5092354;28;20102;-50
2021/01/31 12:24:28;;;;;;;1.45;1.17;;;12.80;99.90;;;;;;5102704;28;20111;-50
2021/01/31 12:26:54;;;;;;;2.05;1.50;;;12.70;99.90;;;;;;5098860;28;20042;-50
2021/01/31 12:29:20;;;;;;;1.67;1.27;;;12.50;99.90;;;;;;5088942;28;20463;-50
2021/01/31 12:31:46;;;;;;;1.88;1.50;;;12.40;99.90;;;;;;5095559;28;20051;-50
2021/01/31 12:34:12;;;;;;;1.52;1.25;;;12.40;99.90;;;;;;5097568;28;20047;-52
2021/01/31 12:36:39;;;;;;;1.20;1.00;;;12.40;99.90;;;;;;5109256;28;20059;-49
2021/01/31 12:39:05;;;;;;;2.15;1.50;;;12.40;99.90;;;;;;5105655;28;20026;-52
2021/01/31 12:41:31;;;;;;;1.85;1.50;;;12.40;99.90;;;;;;5088268;28;20030;-52
2021/01/31 12:43:56;;;;;;;1.10;1.00;;;12.40;99.90;;;;;;5092465;28;20374;-52
2021/01/31 12:46:22;;;;;;;1.65;1.10;;;12.30;99.90;;;;;;5108681;28;20036;-52
2021/01/31 12:48:48;;;;;;;1.42;1.10;;;12.40;99.90;;;;;;5106575;28;20039;-51
2021/01/31 12:51:13;;;;;;;1.63;1.05;;;12.30;99.90;;;;;;5101350;28;20521;-53
2021/01/31 12:53:39;;;;;;;1.67;1.15;;;12.30;99.90;;;;;;5108403;28;20384;-52
2021/01/31 12:56:05;;;;;;;2.05;1.50;;;12.40;99.90;;;;;;5102241;28;20054;-52
2021/01/31 12:58:30;;;;;;;2.00;1.40;;;12.40;99.90;;;;;;5088968;28;20020;-52
2021/01/31 13:00:57;;;;;;;3.55;1.60;;;12.50;99.90;;;;;;5094299;28;20026;-51
2021/01/31 13:03:24;;;;;;;2.75;1.40;;;12.50;99.90;;;;;;5110409;27;20036;-51
2021/01/31 13:05:49;;;;;;;2.78;1.50;;;12.50;99.90;;;;;;5102558;28;20056;-51
2021/01/31 13:08:15;;;;;;;3.38;1.40;;;12.50;99.90;;;;;;5089114;28;20063;-52
2021/01/31 13:10:41;;;;;;;2.47;1.35;;;12.60;99.90;;;;;;5089487;28;20067;-52
2021/01/31 13:13:07;;;;;;;1.98;1.20;;;12.60;99.90;;;;;;5089206;28;20027;-53
2021/01/31 13:15:33;;;;;;;1.90;1.20;;;12.60;99.90;;;;;;5089974;28;20024;-53
2021/01/31 13:17:59;;;;;;;1.98;1.10;;;12.40;99.90;;;;;;5089475;28;20498;-52
2021/01/31 13:20:27;;;;;;;1.00;0.90;;;12.50;99.90;;;;;;5098155;28;20389;-52
2021/01/31 13:22:53;;;;;;;1.52;0.75;;;12.60;99.90;;;;;;5089571;28;20032;-52